createdAt,value
2019-01-28T00:01:15.304Z,43.07
2019-01-28T00:03:45.881Z,44.83
2019-01-28T00:06:15.877Z,44.53
2019-01-28T00:08:45.763Z,42.13
2019-01-28T00:11:15.615Z,43.47
2019-01-28T00:13:45.557Z,44.57
2019-01-28T00:16:15.508Z,40.43
2019-01-28T00:18:45.347Z,40.77
2019-01-28T00:21:16.546Z,39.03
2019-01-28T00:23:46.940Z,41.10
2019-01-28T00:26:18.014Z,41.00
2019-01-28T00:28:47.877Z,38.67
2019-01-28T00:34:41.321Z,45.87
2019-01-28T00:37:11.222Z,40.90
2019-01-28T00:39:41.101Z,44.57
2019-01-28T00:42:10.953Z,45.77
2019-01-28T00:44:40.810Z,42.43
2019-01-28T00:47:10.754Z,42.93
2019-01-28T00:49:40.685Z,43.37
2019-01-28T00:52:12.133Z,43.03
2019-01-28T00:54:41.982Z,39.07
2019-01-28T00:57:12.354Z,43.00
2019-01-28T00:59:42.214Z,46.07
2019-01-28T01:02:12.185Z,41.60
2019-01-28T01:04:42.043Z,39.83
2019-01-28T01:07:12.110Z,41.03
2019-01-28T01:09:41.999Z,41.30
2019-01-28T01:12:11.840Z,45.67
2019-01-28T01:14:41.866Z,42.43
2019-01-28T01:17:11.713Z,44.63
2019-01-28T01:19:41.558Z,45.40
2019-01-28T01:22:11.538Z,46.03
2019-01-28T01:24:41.446Z,39.93
2019-01-28T01:27:11.302Z,40.57
2019-01-28T01:29:41.187Z,48.03
2019-01-28T01:32:11.061Z,44.67
2019-01-28T01:34:40.912Z,45.87
2019-01-28T01:37:10.783Z,42.97
2019-01-28T01:39:40.655Z,42.87
2019-01-28T01:42:10.670Z,43.23
2019-01-28T01:44:40.512Z,45.17
2019-01-28T01:47:10.444Z,42.77
2019-01-28T01:49:40.411Z,44.30
2019-01-28T01:52:10.258Z,44.13
2019-01-28T01:54:40.126Z,43.93
2019-01-28T01:57:09.999Z,40.60
2019-01-28T01:59:39.877Z,46.70
2019-01-28T02:02:09.772Z,40.67
2019-01-28T02:04:39.646Z,41.47
2019-01-28T02:07:09.628Z,38.87
2019-01-28T02:09:39.477Z,43.37
2019-01-28T02:12:09.373Z,42.63
2019-01-28T02:14:39.225Z,41.03
2019-01-28T02:17:09.070Z,41.10
2019-01-28T02:19:39.051Z,44.33
2019-01-28T02:22:09.521Z,41.70
2019-01-28T02:24:39.356Z,42.03
2019-01-28T02:27:09.210Z,45.23
2019-01-28T02:29:39.205Z,46.10
2019-01-28T02:32:09.061Z,44.17
2019-01-28T02:34:38.945Z,47.43
2019-01-28T02:37:08.803Z,44.80
2019-01-28T02:39:38.669Z,46.33
2019-01-28T02:42:08.533Z,47.13
2019-01-28T02:44:38.441Z,48.10
2019-01-28T02:47:08.279Z,47.60
2019-01-28T02:49:38.123Z,48.93
2019-01-28T02:52:08.024Z,46.57
2019-01-28T02:54:37.874Z,49.27
2019-01-28T02:57:07.789Z,49.60
2019-01-28T02:59:37.702Z,46.77
2019-01-28T03:02:07.733Z,48.43
2019-01-28T03:04:37.586Z,50.90
2019-01-28T03:07:07.476Z,46.97
2019-01-28T03:09:37.319Z,47.63
2019-01-28T03:12:07.289Z,50.93
2019-01-28T03:14:37.159Z,46.90
2019-01-28T03:17:10.007Z,50.97
2019-01-28T03:19:40.219Z,51.60
2019-01-28T03:22:10.134Z,49.83
2019-01-28T03:24:40.029Z,47.93
2019-01-28T03:27:09.924Z,51.13
2019-01-28T03:29:39.792Z,48.57
2019-01-28T03:32:09.690Z,43.57
2019-01-28T03:34:39.546Z,48.13
2019-01-28T03:37:09.393Z,44.83
2019-01-28T03:39:39.243Z,44.70
2019-01-28T03:42:09.154Z,43.73
2019-01-28T03:44:39.006Z,44.50
2019-01-28T03:47:08.929Z,43.20
2019-01-28T03:49:38.843Z,46.10
2019-01-28T03:52:10.345Z,41.07
2019-01-28T03:54:40.181Z,41.50
2019-01-28T03:57:10.221Z,39.60
2019-01-28T03:59:40.141Z,39.90
2019-01-28T04:02:10.096Z,40.70
2019-01-28T04:04:40.338Z,40.10
2019-01-28T04:07:10.409Z,40.40
2019-01-28T04:09:40.246Z,37.73
2019-01-28T04:12:10.118Z,35.57
2019-01-28T04:14:40.009Z,40.80
2019-01-28T04:17:09.911Z,35.90
2019-01-28T04:19:39.801Z,38.00
2019-01-28T04:22:09.652Z,34.70
2019-01-28T04:24:39.513Z,37.80
2019-01-28T04:27:09.341Z,34.03
2019-01-28T04:29:39.235Z,32.47
2019-01-28T04:32:09.506Z,34.37
2019-01-28T04:34:39.335Z,37.37
2019-01-28T04:37:09.577Z,35.50
2019-01-28T04:39:39.428Z,33.23
2019-01-28T04:42:09.318Z,38.17
2019-01-28T04:44:39.209Z,36.37
2019-01-28T04:47:09.075Z,35.97
2019-01-28T04:49:38.960Z,37.93
2019-01-28T04:52:09.707Z,38.97
2019-01-28T04:54:39.624Z,36.00
2019-01-28T04:57:09.540Z,37.23
2019-01-28T04:59:39.441Z,34.00
2019-01-28T05:02:09.451Z,33.67
2019-01-28T05:04:39.285Z,32.37
2019-01-28T05:07:09.165Z,37.77
2019-01-28T05:09:39.092Z,33.93
2019-01-28T05:12:08.946Z,35.00
2019-01-28T05:14:38.812Z,32.80
2019-01-28T05:17:08.638Z,37.30
2019-01-28T05:19:38.629Z,36.50
2019-01-28T05:22:08.573Z,42.07
2019-01-28T05:24:38.605Z,40.27
2019-01-28T05:27:08.479Z,37.30
2019-01-28T05:29:38.347Z,54.03
2019-01-28T05:32:08.257Z,43.67
2019-01-28T05:34:38.102Z,42.27
2019-01-28T05:37:07.933Z,70.20
2019-01-28T05:39:37.838Z,49.27
2019-01-28T05:42:07.678Z,37.20
2019-01-28T05:44:37.718Z,40.00
2019-01-28T05:47:08.122Z,39.27
2019-01-28T05:49:38.001Z,50.13
2019-01-28T05:52:07.830Z,68.67
2019-01-28T05:54:37.731Z,66.83
2019-01-28T05:57:08.659Z,52.37
2019-01-28T05:59:39.160Z,58.50
2019-01-28T06:02:09.034Z,49.63
2019-01-28T06:04:38.882Z,49.33
2019-01-28T06:07:08.767Z,49.20
2019-01-28T06:09:38.731Z,44.10
2019-01-28T06:12:08.687Z,46.40
2019-01-28T06:14:38.699Z,48.17
2019-01-28T06:17:08.575Z,49.30
2019-01-28T06:19:38.429Z,44.40
2019-01-28T06:22:08.353Z,47.37
2019-01-28T06:24:38.243Z,42.93
2019-01-28T06:27:08.248Z,42.53
2019-01-28T06:29:38.178Z,44.77
2019-01-28T06:32:08.182Z,43.33
2019-01-28T06:34:38.570Z,45.30
2019-01-28T06:37:08.530Z,44.37
2019-01-28T06:39:38.390Z,45.57
2019-01-28T06:42:08.280Z,65.63
2019-01-28T06:44:38.128Z,47.90
2019-01-28T06:47:08.065Z,45.03
2019-01-28T06:49:37.986Z,47.10
2019-01-28T06:52:07.941Z,44.00
2019-01-28T06:54:37.769Z,46.17
2019-01-28T06:57:07.737Z,42.77
2019-01-28T06:59:37.645Z,49.13
2019-01-28T07:02:07.822Z,51.53
2019-01-28T07:04:37.691Z,46.63
2019-01-28T07:07:07.517Z,50.30
2019-01-28T07:09:37.401Z,58.90
2019-01-28T07:12:07.239Z,60.47
2019-01-28T07:14:37.082Z,61.53
2019-01-28T07:17:06.995Z,56.70
2019-01-28T07:19:36.836Z,60.23
2019-01-28T07:22:06.691Z,54.40
2019-01-28T07:24:36.878Z,46.13
2019-01-28T07:27:06.706Z,46.57
2019-01-28T07:29:36.579Z,48.03
2019-01-28T07:32:07.118Z,47.03
2019-01-28T07:34:36.963Z,45.67
2019-01-28T07:37:06.913Z,41.83
2019-01-28T07:39:36.786Z,49.50
2019-01-28T07:42:06.685Z,47.30
2019-01-28T07:44:36.554Z,48.80
2019-01-28T07:47:06.437Z,52.40
2019-01-28T07:49:36.284Z,46.87
2019-01-28T07:52:06.981Z,45.00
2019-01-28T07:54:36.817Z,46.13
2019-01-28T07:57:06.833Z,46.53
2019-01-28T07:59:36.686Z,44.70
2019-01-28T08:02:06.719Z,51.17
2019-01-28T08:04:36.570Z,46.63
2019-01-28T08:07:06.657Z,46.83
2019-01-28T08:09:36.633Z,51.43
2019-01-28T08:12:06.581Z,49.23
2019-01-28T08:14:36.786Z,53.73
2019-01-28T08:17:07.929Z,44.37
2019-01-28T08:19:37.809Z,47.30
2019-01-28T08:22:07.707Z,45.40
2019-01-28T08:24:37.567Z,41.33
2019-01-28T08:27:07.471Z,45.30
2019-01-28T08:29:37.396Z,46.47
2019-01-28T08:32:08.122Z,45.30
2019-01-28T08:34:37.979Z,44.33
2019-01-28T08:37:07.895Z,46.93
2019-01-28T08:39:37.898Z,41.10
2019-01-28T08:42:07.761Z,48.80
2019-01-28T08:44:37.632Z,46.47
2019-01-28T08:47:07.477Z,47.77
2019-01-28T08:49:37.362Z,45.90
2019-01-28T08:52:07.214Z,44.37
2019-01-28T08:54:37.066Z,45.53
2019-01-28T08:57:06.922Z,40.87
2019-01-28T08:59:37.147Z,42.77
2019-01-28T09:02:07.109Z,51.10
2019-01-28T09:04:36.998Z,49.87
2019-01-28T09:07:06.832Z,45.23
2019-01-28T09:09:36.807Z,46.20
2019-01-28T09:12:06.824Z,40.70
2019-01-28T09:14:36.722Z,38.67
2019-01-28T09:17:07.753Z,51.53
2019-01-28T09:19:37.758Z,39.80
2019-01-28T09:22:07.904Z,37.47
2019-01-28T09:24:37.838Z,41.43
2019-01-28T09:27:07.677Z,48.33
2019-01-28T09:29:37.631Z,40.50
2019-01-28T09:32:07.649Z,51.13
2019-01-28T09:34:37.624Z,46.47
2019-01-28T09:37:07.593Z,43.30
2019-01-28T09:39:37.519Z,39.93
2019-01-28T09:42:07.559Z,46.23
2019-01-28T09:44:37.509Z,72.40
2019-01-28T09:47:11.483Z,49.67
2019-01-28T09:49:41.401Z,49.30
2019-01-28T09:52:11.451Z,44.37
2019-01-28T09:54:41.321Z,39.73
2019-01-28T09:57:11.302Z,41.47
2019-01-28T09:59:41.261Z,36.80
2019-01-28T10:02:11.329Z,57.47
2019-01-28T10:04:41.204Z,46.97
2019-01-28T10:07:11.092Z,62.40
2019-01-28T10:09:40.967Z,59.97
2019-01-28T10:12:13.128Z,39.50
2019-01-28T10:14:43.023Z,47.27
2019-01-28T10:17:13.532Z,38.40
2019-01-28T10:19:43.447Z,43.97
2019-01-28T10:22:13.336Z,64.43
2019-01-28T10:24:43.199Z,44.40
2019-01-28T10:27:13.334Z,36.00
2019-01-28T10:29:43.206Z,47.53
2019-01-28T10:32:13.150Z,60.17
2019-01-28T10:34:43.140Z,35.47
2019-01-28T10:37:13.018Z,51.27
2019-01-28T10:39:42.905Z,35.27
2019-01-28T10:42:12.986Z,37.23
2019-01-28T10:44:42.937Z,75.70
2019-01-28T10:47:12.917Z,33.10
2019-01-28T10:49:42.816Z,50.77
2019-01-28T10:52:12.914Z,53.77
2019-01-28T10:54:43.457Z,56.87
2019-01-28T10:57:13.417Z,56.93
2019-01-28T10:59:43.289Z,34.40
2019-01-28T11:02:13.418Z,34.30
2019-01-28T11:04:43.332Z,57.00
2019-01-28T11:07:13.262Z,38.77
2019-01-28T11:09:43.176Z,53.77
2019-01-28T11:12:13.199Z,52.23
2019-01-28T11:14:43.199Z,54.30
2019-01-28T11:17:13.231Z,38.87
2019-01-28T11:19:43.140Z,52.87
2019-01-28T11:22:13.108Z,56.00
2019-01-28T11:24:43.385Z,42.10
2019-01-28T11:27:13.390Z,117.43
2019-01-28T11:29:43.460Z,64.27
2019-01-28T11:32:13.464Z,48.47
2019-01-28T11:34:43.430Z,51.60
2019-01-28T11:37:13.553Z,43.00
2019-01-28T11:39:43.520Z,46.40
2019-01-28T11:42:13.490Z,49.27
2019-01-28T11:44:43.332Z,40.53
2019-01-28T11:47:13.275Z,44.07
2019-01-28T11:49:43.318Z,43.20
2019-01-28T11:52:13.521Z,46.07
2019-01-28T11:54:43.440Z,54.07
2019-01-28T11:57:13.312Z,47.33
2019-01-28T11:59:43.203Z,48.97
2019-01-28T12:02:13.090Z,47.10
2019-01-28T12:04:42.975Z,47.13
2019-01-28T12:07:12.994Z,48.30
2019-01-28T12:09:42.895Z,45.73
2019-01-28T12:12:12.806Z,48.30
2019-01-28T12:14:42.746Z,45.83
2019-01-28T12:17:12.747Z,51.33
2019-01-28T12:19:42.781Z,52.63
2019-01-28T12:22:12.693Z,65.73
2019-01-28T12:24:42.564Z,74.07
2019-01-28T12:27:12.911Z,57.70
2019-01-28T12:29:45.146Z,66.37
2019-01-28T12:32:17.856Z,61.10
2019-01-28T12:34:47.727Z,57.63
2019-01-28T12:37:18.902Z,65.33
2019-01-28T12:39:48.959Z,62.53
2019-01-28T12:42:19.607Z,67.43
2019-01-28T12:44:49.533Z,57.57
2019-01-28T12:47:19.584Z,57.77
2019-01-28T12:49:49.552Z,53.80
2019-01-28T12:52:19.451Z,57.57
2019-01-28T12:54:49.471Z,59.67
2019-01-28T12:57:22.478Z,53.03
2019-01-28T12:59:53.193Z,57.63
2019-01-28T13:02:23.215Z,60.47
2019-01-28T13:04:53.106Z,72.97
2019-01-28T13:07:23.281Z,60.27
2019-01-28T13:09:53.163Z,63.93
2019-01-28T13:12:23.168Z,62.63
2019-01-28T13:14:53.126Z,61.13
2019-01-28T13:17:24.099Z,61.00
2019-01-28T13:19:53.999Z,67.60
2019-01-28T13:22:23.859Z,64.97
2019-01-28T13:24:53.735Z,65.17
2019-01-28T13:27:25.098Z,75.20
2019-01-28T13:29:54.974Z,66.40
2019-01-28T13:32:24.963Z,72.37
2019-01-28T13:34:54.874Z,72.50
2019-01-28T13:37:24.734Z,72.10
2019-01-28T13:39:54.616Z,66.77
2019-01-28T13:42:24.535Z,76.93
2019-01-28T13:44:54.405Z,74.03
2019-01-28T13:47:55.793Z,64.50
2019-01-28T13:50:25.903Z,73.97
2019-01-28T13:52:56.020Z,74.97
2019-01-28T13:55:26.261Z,65.20
2019-01-28T13:57:56.118Z,66.17
2019-01-28T14:00:29.678Z,80.87
2019-01-28T14:02:59.662Z,87.03
2019-01-28T14:05:29.611Z,73.37
2019-01-28T14:07:59.496Z,77.37
2019-01-28T14:10:29.479Z,76.47
2019-01-28T14:12:59.343Z,72.67
2019-01-28T14:15:37.668Z,69.40
2019-01-28T14:18:09.435Z,68.83
2019-01-28T14:20:39.467Z,72.40
2019-01-28T14:23:09.442Z,71.83
2019-01-28T14:25:39.337Z,80.00
2019-01-28T14:28:11.777Z,81.13
2019-01-28T14:30:51.011Z,77.77
2019-01-28T14:33:21.025Z,80.77
2019-01-28T14:35:50.876Z,75.70
2019-01-28T14:38:20.859Z,87.50
2019-01-28T14:40:50.761Z,81.10
2019-01-28T14:43:20.611Z,85.13
2019-01-28T14:45:59.427Z,82.10
2019-01-28T14:48:30.045Z,82.33
2019-01-28T14:50:59.913Z,72.20
2019-01-28T14:53:29.836Z,85.33
2019-01-28T14:55:59.692Z,80.53
2019-01-28T14:58:29.785Z,80.77
2019-01-28T15:00:59.685Z,83.93
2019-01-28T15:03:29.991Z,88.97
2019-01-28T15:05:59.898Z,86.93
2019-01-28T15:08:31.013Z,84.90
2019-01-28T15:11:01.567Z,82.03
2019-01-28T15:13:31.517Z,86.03
2019-01-28T15:16:02.901Z,85.33
2019-01-28T15:18:35.310Z,89.27
2019-01-28T15:21:05.379Z,85.10
2019-01-28T15:23:35.307Z,87.60
2019-01-28T15:26:05.252Z,88.00
2019-01-28T15:28:35.099Z,89.50
2019-01-28T15:31:05.099Z,88.20
2019-01-28T15:33:35.321Z,86.40
2019-01-28T15:36:06.520Z,88.97
2019-01-28T15:38:36.403Z,92.17
2019-01-28T15:41:06.555Z,88.90
2019-01-28T15:43:38.575Z,94.47
2019-01-28T15:46:09.670Z,91.23
2019-01-28T15:48:39.603Z,99.37
2019-01-28T15:51:09.610Z,93.93
2019-01-28T15:53:39.816Z,90.43
2019-01-28T15:56:09.880Z,90.17
2019-01-28T15:58:41.422Z,98.00
2019-01-28T16:01:11.490Z,89.23
2019-01-28T16:03:41.400Z,97.37
2019-01-28T16:06:11.316Z,90.13
2019-01-28T16:08:42.450Z,94.33
2019-01-28T16:11:12.621Z,106.03
2019-01-28T16:13:44.155Z,91.97
2019-01-28T16:16:14.206Z,94.03
2019-01-28T16:18:44.347Z,98.13
2019-01-28T16:21:14.386Z,98.23
2019-01-28T16:23:44.282Z,93.70
2019-01-28T16:26:14.170Z,107.10
2019-01-28T16:28:44.135Z,99.73
2019-01-28T16:31:14.534Z,96.43
2019-01-28T16:33:44.428Z,91.67
2019-01-28T16:36:14.485Z,97.03
2019-01-28T16:38:44.402Z,96.87
2019-01-28T16:41:14.264Z,96.23
2019-01-28T16:43:44.268Z,97.23
2019-01-28T16:46:14.185Z,100.00
2019-01-28T16:48:44.629Z,95.60
2019-01-28T16:51:14.517Z,94.43
2019-01-28T16:53:44.386Z,95.07
2019-01-28T16:56:16.572Z,92.20
2019-01-28T16:58:46.492Z,98.27
2019-01-28T17:01:16.547Z,94.50
2019-01-28T17:03:46.671Z,89.87
2019-01-28T17:06:16.565Z,97.50
2019-01-28T17:08:46.520Z,97.17
2019-01-28T17:11:16.493Z,106.03
2019-01-28T17:13:46.344Z,99.63
2019-01-28T17:16:16.222Z,108.90
2019-01-28T17:18:46.132Z,102.57
2019-01-28T17:21:16.345Z,101.50
2019-01-28T17:23:46.265Z,110.03
2019-01-28T17:26:16.453Z,118.53
2019-01-28T17:28:46.360Z,111.70
2019-01-28T17:31:16.329Z,118.90
2019-01-28T17:33:46.176Z,113.47
2019-01-28T17:36:16.498Z,108.20
2019-01-28T17:38:48.101Z,112.60
2019-01-28T17:41:21.231Z,101.90
2019-01-28T17:43:52.430Z,102.03
2019-01-28T17:46:22.329Z,101.43
2019-01-28T17:48:52.224Z,112.17
2019-01-28T17:51:22.184Z,101.17
2019-01-28T17:53:52.098Z,107.47
2019-01-28T17:56:21.966Z,112.27
2019-01-28T17:58:52.041Z,118.03
2019-01-28T18:01:21.920Z,117.67
2019-01-28T18:03:51.827Z,119.63
2019-01-28T18:06:21.765Z,128.93
2019-01-28T18:08:52.686Z,128.37
2019-01-28T18:11:23.153Z,128.90
2019-01-28T18:13:53.189Z,125.63
2019-01-28T18:16:23.059Z,121.33
2019-01-28T18:18:52.960Z,126.87
2019-01-28T18:21:23.494Z,141.97
2019-01-28T18:23:56.060Z,159.40
2019-01-28T18:26:26.040Z,134.17
2019-01-28T18:28:56.026Z,128.47
2019-01-28T18:31:26.034Z,119.57
2019-01-28T18:33:55.901Z,133.47
2019-01-28T18:36:25.939Z,141.20
2019-01-28T18:38:56.117Z,137.07
2019-01-28T18:41:26.321Z,139.73
2019-01-28T18:43:56.281Z,151.20
2019-01-28T18:46:26.373Z,134.43
2019-01-28T18:48:56.288Z,137.07
2019-01-28T18:51:26.215Z,133.90
2019-01-28T18:53:56.075Z,161.33
2019-01-28T18:56:25.966Z,165.57
2019-01-28T18:58:55.860Z,152.83
2019-01-28T19:01:26.035Z,150.43
2019-01-28T19:03:59.502Z,134.77
2019-01-28T19:06:46.550Z,146.80
2019-01-28T19:09:31.960Z,135.50
2019-01-28T19:12:26.509Z,131.53
2019-01-28T19:15:30.087Z,137.83
2019-01-28T19:18:20.360Z,130.23
2019-01-28T19:21:11.915Z,132.13
2019-01-28T19:23:42.595Z,121.27
2019-01-28T19:26:12.832Z,120.60
2019-01-28T19:28:42.811Z,118.00
2019-01-28T19:31:12.775Z,121.47
2019-01-28T19:33:42.673Z,119.97
2019-01-28T19:36:12.670Z,115.63
2019-01-28T19:38:42.680Z,122.43
2019-01-28T19:41:12.579Z,118.47
2019-01-28T19:43:42.495Z,120.80
2019-01-28T19:46:12.383Z,119.73
2019-01-28T19:48:42.252Z,125.40
2019-01-28T19:51:15.739Z,127.43
2019-01-28T19:53:43.827Z,124.43
2019-01-28T19:56:13.832Z,126.63
2019-01-28T19:58:43.728Z,133.30
2019-01-28T20:01:13.840Z,125.70
2019-01-28T20:03:43.748Z,127.47
2019-01-28T20:06:13.779Z,134.07
2019-01-28T20:08:43.687Z,126.17
2019-01-28T20:11:13.579Z,127.70
2019-01-28T20:13:43.485Z,131.43
2019-01-28T20:16:13.361Z,132.40
2019-01-28T20:18:43.276Z,130.90
2019-01-28T20:21:13.208Z,123.43
2019-01-28T20:23:43.097Z,124.60
2019-01-28T20:26:12.998Z,123.67
2019-01-28T20:28:42.930Z,125.87
2019-01-28T20:31:15.672Z,123.40
2019-01-28T20:33:47.338Z,129.33
2019-01-28T20:36:17.214Z,135.20
2019-01-28T20:38:47.196Z,120.40
2019-01-28T20:41:17.064Z,128.70
2019-01-28T20:43:46.950Z,133.67
2019-01-28T20:46:16.865Z,129.17
2019-01-28T20:48:47.274Z,126.23
2019-01-28T20:51:17.280Z,132.07
2019-01-28T20:53:48.227Z,127.73
2019-01-28T20:56:18.117Z,131.37
2019-01-28T20:58:48.025Z,131.70
2019-01-28T21:01:19.610Z,128.17
2019-01-28T21:03:50.123Z,127.83
2019-01-28T21:06:20.260Z,130.07
2019-01-28T21:08:50.628Z,134.90
2019-01-28T21:11:20.843Z,139.30
2019-01-28T21:13:50.950Z,143.47
2019-01-28T21:16:20.915Z,143.70
2019-01-28T21:18:50.876Z,145.27
2019-01-28T21:21:21.479Z,147.03
2019-01-28T21:23:51.354Z,143.47
2019-01-28T21:26:22.855Z,152.17
2019-01-28T21:28:52.821Z,145.83
2019-01-28T21:31:22.798Z,140.30
2019-01-28T21:33:52.690Z,145.57
2019-01-28T21:36:36.306Z,140.80
2019-01-28T21:39:11.012Z,151.63
2019-01-28T21:41:43.335Z,149.67
2019-01-28T21:44:13.234Z,155.97
2019-01-28T21:46:43.721Z,144.63
2019-01-28T21:49:14.647Z,148.57
2019-01-28T21:51:50.410Z,151.03
2019-01-28T21:54:16.061Z,139.90
2019-01-28T21:56:46.420Z,153.23
2019-01-28T21:59:16.348Z,149.40
2019-01-28T22:01:46.975Z,146.97
2019-01-28T22:04:16.835Z,151.67
2019-01-28T22:06:46.800Z,145.87
2019-01-28T22:09:16.667Z,144.37
2019-01-28T22:11:48.118Z,140.17
2019-01-28T22:14:17.958Z,139.17
2019-01-28T22:16:47.823Z,145.67
2019-01-28T22:19:17.793Z,143.60
2019-01-28T22:21:59.520Z,150.10
2019-01-28T22:24:29.446Z,141.03
2019-01-28T22:26:59.300Z,143.73
2019-01-28T22:29:29.179Z,133.37
2019-01-28T22:31:59.054Z,148.63
2019-01-28T22:34:28.906Z,143.20
2019-01-28T22:37:01.878Z,146.37
2019-01-28T22:39:31.769Z,142.47
2019-01-28T22:42:01.760Z,146.83
2019-01-28T22:44:31.697Z,147.27
2019-01-28T22:47:01.861Z,139.43
2019-01-28T22:49:32.006Z,148.20
2019-01-28T22:52:07.749Z,141.57
2019-01-28T22:54:34.233Z,157.47
2019-01-28T22:57:04.312Z,157.47
2019-01-28T22:59:34.185Z,150.77
2019-01-28T23:02:06.653Z,153.37
2019-01-28T23:04:36.632Z,152.33
2019-01-28T23:07:06.505Z,153.43
2019-01-28T23:09:36.385Z,156.43
2019-01-28T23:12:06.404Z,150.93
2019-01-28T23:14:36.293Z,159.60
2019-01-28T23:17:06.281Z,158.40
2019-01-28T23:19:36.207Z,157.37
2019-01-28T23:22:06.135Z,155.27
2019-01-28T23:24:36.015Z,158.73
2019-01-28T23:27:06.458Z,159.50
2019-01-28T23:29:36.361Z,162.43
2019-01-28T23:32:09.144Z,157.83
2019-01-28T23:34:38.982Z,159.43
2019-01-28T23:37:08.831Z,156.30
2019-01-28T23:39:38.764Z,152.57
2019-01-28T23:42:08.690Z,155.20
2019-01-28T23:44:38.571Z,159.77
2019-01-28T23:47:11.290Z,162.93
2019-01-28T23:49:41.944Z,160.77
2019-01-28T23:52:13.959Z,149.37
2019-01-28T23:54:46.375Z,153.27
2019-01-28T23:57:16.309Z,158.43
2019-01-28T23:59:46.592Z,165.07
